Lansing, KS

7:05 PM CST on January 31, 2015 (GMT -0600)
Lansing | Change Station
CLOSE
Current Station
Personal Weather Station
Location: Leavenworth, KS
Elevation: 860 ft
Nearby Weather Stations

Elev 860 ft 39.29 °N, 94.94 °W | Updated 11 seconds ago

Rain
Rain
34.9 °F
Feels Like 32 °F
N
3.5
Wind Variable Wind from SE
Gusts 3.5 mph

Today
High -- | Low -- °F
--% Chance of Precip.
Yesterday
High -- | Low -- °F
Precip. -- in
7:27 AM 5:38 PM
Waxing Gibbous, 92% visible
Pressure 30.00 in
Visibility 5.0 miles
Clouds Few 2100 ft
Overcast 4500 ft
Windchill 32 °F
Dew Point 34 °F
Humidity 96%
Rainfall 0.33 in
Snow Depth Not available.
UV 0 out of 12
Pollen .10 out of 12
Air Quality Not available.
Flu Activity Not available.
METAR KMCI 010053Z 13008KT 5SM -PLRA BR FEW021 OVC045 01/01 A2998 RMK AO2 SLP158 RAE20SNB20E43PLB44RAB44 P0006 T00110011 $

More Conditions Fewer Conditions

Pressure 30.00 in
Visibility 5.0 miles
Clouds Few 2100 ft
Overcast 4500 ft
Windchill 32 °F
Dew Point 34 °F
Humidity 96%
Rainfall 0.33 in
Snow Depth Not available.
UV 0 out of 12
Pollen .10 out of 12
Air Quality Not available.
Flu Activity Not available.
METAR KMCI 010053Z 13008KT 5SM -PLRA BR FEW021 OVC045 01/01 A2998 RMK AO2 SLP158 RAE20SNB20E43PLB44RAB44 P0006 T00110011 $

More Conditions Fewer Conditions

10-Day Weather Forecast

Almanac

Astronomy

Jan. 31, 2015 Rise Set
Actual Time
Civil Twilight
Nautical Twilight
Astronomical Twilight
Moon
Length of Visible Light
Length of Day
Tomorrow will be .
, % of the Moon is Illuminated

Today's Extremes

State Highs State Lows

Community

WunderPhotos

Upload Photos

1,792,268 photos uploaded!

WunderBlogs® & News

Nearby

Air Quality

  Air Quality AQ Index Pollutant
Not available.

Snow Depth

Station Depth Elevation

Earthquake Activity

City Distance Mag. Time & Date
Minimum magnitude displayed is 2.5.

Coastal Water Temperatures

Place Temperature

Nearby Weather Stations